Time;durP1;ratioP1;P1;durP2;ratioP2;P2;SDS_P1;SDS_P2;PMS_P1;PMS_P2;Temp;Humidity;BMP_temperature;BMP_pressure;BME280_temperature;BME280_humidity;BME280_pressure;Samples;Min_cycle;Max_cycle;Signal;HPM_P1;HPM_P2
2023/05/17 00:02:29;;;;;;;11.65;9.27;;;13.70;99.90;;;;;;10213218;29;20266;-85
2023/05/17 00:07:32;;;;;;;11.93;8.55;;;14.00;99.90;;;;;;10195158;29;20279;-85
2023/05/17 00:12:34;;;;;;;10.40;7.40;;;14.00;99.90;;;;;;10174631;29;20263;-84
2023/05/17 00:17:37;;;;;;;12.18;8.98;;;13.90;99.90;;;;;;10173251;29;20769;-84
2023/05/17 00:22:42;;;;;;;16.27;9.43;;;13.90;99.90;;;;;;10181540;29;20254;-85
2023/05/17 00:27:44;;;;;;;11.52;9.02;;;14.00;99.90;;;;;;10209709;29;20262;-84
2023/05/17 00:32:47;;;;;;;11.32;8.65;;;13.90;99.90;;;;;;10165390;29;20318;-84
2023/05/17 00:37:49;;;;;;;13.02;8.63;;;14.10;99.90;;;;;;10171692;29;20259;-85
2023/05/17 00:42:52;;;;;;;11.90;8.00;;;13.90;99.90;;;;;;10183973;29;20261;-85
2023/05/17 00:47:56;;;;;;;8.02;6.70;;;13.90;99.90;;;;;;10194438;29;20346;-84
2023/05/17 00:53:00;;;;;;;13.02;7.13;;;14.10;99.90;;;;;;10210609;29;20246;-84
2023/05/17 00:58:03;;;;;;;13.13;7.55;;;14.00;99.90;;;;;;10194036;29;20318;-84
2023/05/17 01:03:06;;;;;;;6.20;5.63;;;13.90;99.90;;;;;;10209078;29;20296;-84
2023/05/17 01:08:08;;;;;;;8.13;6.72;;;14.00;99.90;;;;;;10193323;29;20803;-84
2023/05/17 01:13:52;;;;;;;8.25;5.90;;;13.70;99.90;;;;;;10209654;29;20347;-84
2023/05/17 01:19:11;;;;;;;7.13;6.05;;;13.50;99.90;;;;;;10184386;29;20245;-85
2023/05/17 01:24:38;;;;;;;7.00;5.55;;;13.70;99.90;;;;;;10176096;29;20214;-84
2023/05/17 01:29:43;;;;;;;9.60;5.80;;;13.30;99.90;;;;;;10208873;29;20361;-84
2023/05/17 01:34:46;;;;;;;7.50;5.43;;;13.40;99.90;;;;;;10190066;29;20301;-84
2023/05/17 01:39:49;;;;;;;5.93;4.72;;;13.30;99.90;;;;;;10207097;29;20306;-84
2023/05/17 01:44:54;;;;;;;4.60;4.20;;;13.10;99.90;;;;;;10207820;29;20305;-84
2023/05/17 01:49:59;;;;;;;10.05;6.20;;;12.70;99.90;;;;;;10191390;29;20803;-84
2023/05/17 01:55:28;;;;;;;8.87;4.77;;;12.40;99.90;;;;;;10175725;29;20238;-84
2023/05/17 02:00:31;;;;;;;6.53;4.70;;;12.30;99.90;;;;;;10144199;29;20620;-84
2023/05/17 02:05:34;;;;;;;7.07;5.38;;;12.40;99.90;;;;;;10158207;29;20242;-84
2023/05/17 02:10:37;;;;;;;7.30;4.43;;;12.50;99.90;;;;;;10205858;29;20270;-84
2023/05/17 02:15:39;;;;;;;7.53;4.30;;;12.60;99.90;;;;;;10208338;29;20297;-84
2023/05/17 02:20:42;;;;;;;6.47;4.88;;;12.40;99.90;;;;;;10190169;29;20638;-84
2023/05/17 02:25:44;;;;;;;8.35;5.28;;;12.50;99.90;;;;;;10190705;29;20274;-84
2023/05/17 02:30:47;;;;;;;4.63;3.93;;;12.40;99.90;;;;;;10205872;29;20266;-84
2023/05/17 02:35:49;;;;;;;5.88;4.78;;;12.60;99.90;;;;;;10190168;29;20239;-84
2023/05/17 02:40:54;;;;;;;5.67;4.23;;;12.60;99.90;;;;;;10204609;29;20301;-84
2023/05/17 02:45:56;;;;;;;7.75;6.18;;;12.60;99.90;;;;;;10174753;29;20771;-84
2023/05/17 02:50:59;;;;;;;6.05;4.22;;;12.90;99.90;;;;;;10206957;29;20333;-84
2023/05/17 02:56:02;;;;;;;6.25;3.55;;;12.80;99.90;;;;;;10189587;29;20219;-84
2023/05/17 03:01:05;;;;;;;5.55;3.90;;;12.70;99.90;;;;;;10189035;29;20653;-84
2023/05/17 03:06:08;;;;;;;6.20;3.88;;;12.80;99.90;;;;;;10189553;29;20628;-84
2023/05/17 03:11:12;;;;;;;6.22;4.13;;;12.80;99.90;;;;;;10149469;29;20263;-84
2023/05/17 03:16:15;;;;;;;6.10;5.33;;;12.50;99.90;;;;;;10149347;29;20651;-85
2023/05/17 03:21:18;;;;;;;4.78;4.07;;;12.50;99.90;;;;;;10186669;29;20250;-84
2023/05/17 03:26:23;;;;;;;5.28;3.75;;;12.40;99.90;;;;;;10206033;29;20631;-84
2023/05/17 03:31:26;;;;;;;5.25;4.13;;;12.60;99.90;;;;;;10187891;29;20270;-84
2023/05/17 03:36:30;;;;;;;4.13;3.60;;;12.50;99.90;;;;;;10188272;29;20250;-84
2023/05/17 03:41:33;;;;;;;3.42;2.97;;;12.50;99.90;;;;;;10188375;29;20307;-84
2023/05/17 03:46:36;;;;;;;3.95;3.63;;;12.50;99.90;;;;;;10186116;29;20254;-85
2023/05/17 03:51:39;;;;;;;4.25;3.45;;;12.30;99.90;;;;;;10187490;29;20258;-84
2023/05/17 03:56:45;;;;;;;3.60;2.93;;;12.50;99.90;;;;;;10188297;29;20630;-84
2023/05/17 04:01:48;;;;;;;10.68;5.65;;;12.40;99.90;;;;;;10187957;29;20250;-84
2023/05/17 04:06:51;;;;;;;13.93;3.65;;;12.70;99.90;;;;;;10191220;29;20293;-84
2023/05/17 04:11:54;;;;;;;5.97;3.80;;;12.70;99.90;;;;;;10195513;29;20266;-84
2023/05/17 04:16:57;;;;;;;6.18;4.28;;;12.70;99.90;;;;;;10194810;29;20320;-84
2023/05/17 04:21:59;;;;;;;4.32;3.63;;;12.70;99.90;;;;;;10193049;29;20334;-84
2023/05/17 04:27:04;;;;;;;6.25;3.97;;;13.00;99.90;;;;;;10164063;29;20242;-84
2023/05/17 04:32:07;;;;;;;6.55;4.68;;;13.40;99.90;;;;;;10194599;29;20321;-85
2023/05/17 04:37:10;;;;;;;4.55;3.53;;;13.10;99.90;;;;;;10194756;29;20246;-85
2023/05/17 04:42:13;;;;;;;5.50;3.47;;;13.20;99.90;;;;;;10193863;29;20303;-85
2023/05/17 04:47:21;;;;;;;4.80;4.15;;;13.00;99.90;;;;;;10185981;29;20647;-85
2023/05/17 04:52:26;;;;;;;3.97;2.22;;;13.00;99.90;;;;;;10181824;29;20270;-85
2023/05/17 04:57:29;;;;;;;6.60;3.53;;;12.90;99.50;;;;;;10194515;29;20247;-85
2023/05/17 05:02:38;;;;;;;5.88;4.03;;;12.90;99.90;;;;;;10193709;29;20247;-85
2023/05/17 05:07:41;;;;;;;5.30;3.63;;;12.60;99.90;;;;;;10153773;29;20681;-84
2023/05/17 05:12:44;;;;;;;5.45;4.78;;;13.30;99.90;;;;;;10173367;29;20278;-85
2023/05/17 05:17:47;;;;;;;6.32;3.03;;;13.40;99.90;;;;;;10171008;29;20306;-84
2023/05/17 05:22:50;;;;;;;3.87;3.00;;;13.20;99.90;;;;;;10194174;29;20703;-84
2023/05/17 05:27:54;;;;;;;6.68;3.25;;;12.70;96.00;;;;;;10176238;29;20246;-85
2023/05/17 05:32:57;;;;;;;4.15;2.67;;;12.90;99.90;;;;;;10175268;29;20259;-84
2023/05/17 05:38:00;;;;;;;7.50;3.87;;;12.80;99.20;;;;;;10173307;29;20259;-84
2023/05/17 05:43:03;;;;;;;6.47;4.60;;;12.00;95.10;;;;;;10203059;28;20219;-85
2023/05/17 05:48:07;;;;;;;4.40;3.50;;;12.00;99.90;;;;;;10171303;29;20298;-85
2023/05/17 05:53:10;;;;;;;10.23;3.33;;;12.30;99.90;;;;;;10161295;29;20283;-85
2023/05/17 05:58:28;;;;;;;8.13;3.70;;;12.20;99.50;;;;;;10190262;29;20282;-85
2023/05/17 06:03:31;;;;;;;8.20;4.07;;;11.90;97.80;;;;;;10177486;29;20687;-85
2023/05/17 06:08:33;;;;;;;4.70;4.20;;;12.10;99.90;;;;;;10207188;29;20243;-85
2023/05/17 06:13:36;;;;;;;7.05;3.22;;;12.60;99.90;;;;;;10206089;29;20322;-83
2023/05/17 06:18:38;;;;;;;13.53;3.90;;;12.70;99.90;;;;;;10209124;29;20242;-83
2023/05/17 06:23:41;;;;;;;6.37;3.97;;;13.40;99.90;;;;;;10207785;29;20289;-81
2023/05/17 06:28:44;;;;;;;10.67;4.73;;;13.80;99.90;;;;;;10205896;29;20318;-83
2023/05/17 06:33:46;;;;;;;12.20;4.38;;;13.70;99.90;;;;;;10207337;29;20689;-82
2023/05/17 06:38:49;;;;;;;8.53;3.73;;;13.60;99.90;;;;;;10205073;29;20334;-82
2023/05/17 06:43:51;;;;;;;8.23;3.03;;;13.10;91.60;;;;;;10187209;29;20242;-88
2023/05/17 06:48:54;;;;;;;8.87;2.73;;;13.50;95.50;;;;;;10190279;29;20293;-88
2023/05/17 06:53:57;;;;;;;5.30;2.53;;;14.00;95.60;;;;;;10196505;29;20938;-82
2023/05/17 06:59:00;;;;;;;11.13;4.27;;;14.30;94.50;;;;;;10186345;29;20689;-84
2023/05/17 07:04:02;;;;;;;25.27;3.47;;;14.70;83.70;;;;;;10199933;29;20246;-84
2023/05/17 07:09:05;;;;;;;8.70;3.43;;;14.80;84.00;;;;;;10189320;29;20263;-86
2023/05/17 07:14:08;;;;;;;16.60;3.30;;;15.00;77.10;;;;;;10205851;29;20314;-84
2023/05/17 07:19:11;;;;;;;13.48;3.55;;;15.00;86.20;;;;;;10213387;28;20238;-82
2023/05/17 07:24:14;;;;;;;23.77;5.10;;;14.60;79.40;;;;;;10205547;29;20297;-83
2023/05/17 07:29:16;;;;;;;11.47;3.97;;;14.40;90.00;;;;;;10206608;29;20313;-83
2023/05/17 07:34:19;;;;;;;19.60;4.37;;;14.90;90.60;;;;;;10205095;29;20247;-82
2023/05/17 07:39:21;;;;;;;12.67;3.27;;;15.50;92.80;;;;;;10203453;29;20762;-81
2023/05/17 07:44:24;;;;;;;11.27;3.00;;;16.60;91.90;;;;;;10193543;29;20652;-82
2023/05/17 07:49:27;;;;;;;10.38;2.97;;;17.00;81.20;;;;;;10209287;29;20258;-82
2023/05/17 07:54:30;;;;;;;12.85;3.80;;;16.60;70.30;;;;;;10212443;29;20243;-81
2023/05/17 07:59:32;;;;;;;26.92;3.58;;;17.20;77.10;;;;;;10210142;29;20246;-82
2023/05/17 08:04:35;;;;;;;6.45;3.15;;;18.00;84.90;;;;;;10220719;29;20243;-83
2023/05/17 08:09:39;;;;;;;8.25;3.38;;;18.10;73.60;;;;;;10210792;29;20971;-82
2023/05/17 08:14:41;;;;;;;17.08;2.10;;;17.40;68.10;;;;;;10210718;29;20262;-82
2023/05/17 08:19:44;;;;;;;12.85;2.45;;;17.60;74.70;;;;;;10209792;29;20246;-83
2023/05/17 08:24:47;;;;;;;4.93;2.38;;;18.10;59.90;;;;;;10194237;29;20254;-84
2023/05/17 08:29:50;;;;;;;6.43;2.47;;;18.00;51.00;;;;;;10183288;29;20326;-82
2023/05/17 08:34:53;;;;;;;14.75;3.50;;;17.40;51.30;;;;;;10180574;29;20246;-83
2023/05/17 08:39:56;;;;;;;13.65;2.15;;;17.40;51.30;;;;;;10208460;29;20246;-82
2023/05/17 08:44:58;;;;;;;7.63;2.53;;;17.20;60.10;;;;;;10218004;29;20282;-82
2023/05/17 08:50:04;;;;;;;4.15;2.00;;;17.00;64.30;;;;;;10208811;29;20967;-81
2023/05/17 08:55:08;;;;;;;3.63;2.45;;;16.90;59.50;;;;;;10209146;29;20238;-82
2023/05/17 09:00:12;;;;;;;11.15;3.35;;;17.00;57.40;;;;;;10206206;29;20316;-82
2023/05/17 09:05:15;;;;;;;7.60;2.00;;;16.70;60.20;;;;;;10207654;29;20250;-82
2023/05/17 09:10:18;;;;;;;4.93;2.38;;;17.40;69.60;;;;;;10192518;29;20278;-82
2023/05/17 09:15:22;;;;;;;10.23;3.13;;;17.80;68.10;;;;;;10208809;29;20372;-82
2023/05/17 09:20:33;;;;;;;8.95;2.35;;;17.90;56.80;;;;;;10207146;29;20238;-83
2023/05/17 09:25:36;;;;;;;6.85;1.80;;;17.90;61.10;;;;;;10203819;29;20242;-83
2023/05/17 09:30:40;;;;;;;8.65;3.20;;;17.30;51.40;;;;;;10190764;29;20262;-82
2023/05/17 09:35:43;;;;;;;2.72;1.63;;;17.40;63.70;;;;;;10207440;29;20332;-83
2023/05/17 09:40:47;;;;;;;7.47;2.35;;;17.50;67.90;;;;;;10220123;29;20250;-83
2023/05/17 09:45:57;;;;;;;9.55;2.88;;;17.60;64.10;;;;;;10211681;29;20259;-82
2023/05/17 09:51:00;;;;;;;5.38;2.85;;;17.80;64.80;;;;;;10156221;29;20330;-82
2023/05/17 09:56:04;;;;;;;7.95;3.05;;;17.60;52.40;;;;;;10186559;29;20295;-83
2023/05/17 10:01:09;;;;;;;7.47;2.35;;;16.90;48.00;;;;;;10151935;29;20250;-83
2023/05/17 10:06:14;;;;;;;5.05;1.88;;;16.80;56.40;;;;;;10216855;29;20656;-82
2023/05/17 10:11:37;;;;;;;4.82;2.10;;;16.50;62.40;;;;;;10230559;29;20321;-82
2023/05/17 10:16:41;;;;;;;4.55;1.90;;;16.70;64.40;;;;;;10199896;29;20305;-83
2023/05/17 10:21:46;;;;;;;4.60;2.20;;;16.40;51.60;;;;;;10198084;29;20602;-83
2023/05/17 10:26:49;;;;;;;3.70;2.15;;;16.70;61.50;;;;;;10184373;29;20290;-86
2023/05/17 10:31:52;;;;;;;6.72;2.60;;;17.00;60.90;;;;;;10183905;29;20723;-82
2023/05/17 10:37:01;;;;;;;6.18;2.00;;;17.30;54.80;;;;;;10189070;29;20250;-83
2023/05/17 10:42:07;;;;;;;5.70;2.60;;;16.90;49.80;;;;;;10189459;29;20917;-83
2023/05/17 10:47:16;;;;;;;2.35;1.13;;;16.50;50.20;;;;;;10168835;29;20314;-83
2023/05/17 10:52:22;;;;;;;9.10;4.28;;;17.30;82.60;;;;;;10216544;29;20290;-81
2023/05/17 10:57:37;;;;;;;2.28;1.92;;;17.50;58.70;;;;;;10204468;29;20298;-81
2023/05/17 11:03:15;;;;;;;4.00;1.73;;;17.90;71.30;;;;;;10223560;29;20277;-83
2023/05/17 11:08:19;;;;;;;5.30;2.50;;;17.90;60.80;;;;;;10290265;23;20258;-83
2023/05/17 11:13:30;;;;;;;1.75;1.08;;;17.90;56.30;;;;;;10187337;29;20278;-82
2023/05/17 11:18:49;;;;;;;8.65;2.53;;;18.90;64.20;;;;;;10184454;29;20238;-82
2023/05/17 11:23:55;;;;;;;3.92;2.38;;;18.80;57.30;;;;;;10203375;29;20301;-84
2023/05/17 11:29:11;;;;;;;5.43;2.90;;;18.70;59.10;;;;;;10203358;29;20250;-84
2023/05/17 11:34:17;;;;;;;13.80;3.40;;;18.40;54.50;;;;;;10205106;29;20313;-85
2023/05/17 11:39:21;;;;;;;6.70;2.55;;;18.40;47.00;;;;;;10180941;29;20243;-82
2023/05/17 11:44:28;;;;;;;3.97;2.13;;;17.70;35.90;;;;;;10205630;29;20250;-83
2023/05/17 11:49:35;;;;;;;5.85;1.65;;;18.00;69.40;;;;;;10205914;29;20242;-84
2023/05/17 11:54:39;;;;;;;5.78;2.58;;;18.30;62.10;;;;;;10204659;29;20262;-84
2023/05/17 11:59:42;;;;;;;5.90;2.45;;;18.40;58.70;;;;;;10206698;29;20246;-84
2023/05/17 12:04:45;;;;;;;5.47;2.20;;;18.10;38.30;;;;;;10181631;29;20270;-84
2023/05/17 12:09:48;;;;;;;4.57;2.22;;;17.60;43.90;;;;;;10185256;29;20239;-84
2023/05/17 12:14:51;;;;;;;2.00;1.65;;;16.90;37.10;;;;;;10172824;29;20271;-84
2023/05/17 12:19:54;;;;;;;3.95;2.45;;;17.70;57.20;;;;;;10194308;29;20976;-84
2023/05/17 12:24:57;;;;;;;4.13;2.20;;;17.20;48.40;;;;;;10159467;29;20239;-85
2023/05/17 12:30:14;;;;;;;4.47;2.00;;;17.30;38.30;;;;;;10176764;29;20307;-85
2023/05/17 12:35:16;;;;;;;4.60;2.28;;;17.30;38.40;;;;;;10191394;29;20262;-85
2023/05/17 12:40:19;;;;;;;8.30;2.25;;;16.90;34.70;;;;;;10193481;29;20344;-85
2023/05/17 12:45:22;;;;;;;5.28;2.05;;;16.90;38.40;;;;;;10191034;29;20687;-85
2023/05/17 12:50:31;;;;;;;2.00;1.30;;;17.40;39.30;;;;;;10192545;29;20232;-85
2023/05/17 12:55:36;;;;;;;6.85;1.77;;;17.20;58.20;;;;;;10209589;29;20612;-83
2023/05/17 13:00:39;;;;;;;4.80;2.20;;;16.60;29.90;;;;;;10185501;29;20263;-84
2023/05/17 13:05:43;;;;;;;6.22;1.70;;;16.50;34.40;;;;;;10210448;29;20266;-83
2023/05/17 13:10:45;;;;;;;3.63;1.58;;;16.50;39.50;;;;;;10193358;29;20263;-84
2023/05/17 13:15:49;;;;;;;6.57;2.35;;;17.00;35.70;;;;;;10195632;29;20306;-85
2023/05/17 13:20:51;;;;;;;6.10;2.58;;;17.40;31.20;;;;;;10181333;29;20634;-85
2023/05/17 13:25:54;;;;;;;5.30;1.90;;;16.70;25.50;;;;;;10195821;29;20306;-85
2023/05/17 13:30:56;;;;;;;3.72;1.98;;;16.70;37.10;;;;;;10209035;29;21286;-85
2023/05/17 13:35:59;;;;;;;4.00;2.78;;;16.80;37.90;;;;;;10190182;29;20242;-83
2023/05/17 13:41:02;;;;;;;4.80;2.47;;;16.60;28.30;;;;;;10209646;29;20616;-84
2023/05/17 13:46:04;;;;;;;6.05;2.00;;;16.70;28.20;;;;;;10191111;29;20246;-84
2023/05/17 13:51:07;;;;;;;10.98;3.20;;;16.50;28.70;;;;;;10208078;29;20341;-84
2023/05/17 13:56:10;;;;;;;10.57;2.40;;;16.00;23.80;;;;;;10207446;29;20254;-84
2023/05/17 14:01:14;;;;;;;2.97;2.03;;;;;;;;;;10206385;29;20317;-84
2023/05/17 14:06:17;;;;;;;7.40;1.95;;;15.20;30.00;;;;;;10189022;29;20259;-84
2023/05/17 14:11:20;;;;;;;5.53;2.22;;;15.50;33.50;;;;;;10207402;29;20254;-83
2023/05/17 14:16:24;;;;;;;9.60;1.92;;;15.60;26.30;;;;;;10206552;29;20716;-83
2023/05/17 14:21:26;;;;;;;5.22;1.73;;;15.60;31.50;;;;;;10206640;29;20242;-84
2023/05/17 14:26:29;;;;;;;4.93;2.00;;;16.00;28.60;;;;;;10190352;29;20246;-85
2023/05/17 14:31:31;;;;;;;3.58;1.80;;;16.10;30.70;;;;;;10176050;29;20258;-83
2023/05/17 14:36:35;;;;;;;3.22;1.50;;;16.10;33.70;;;;;;10168264;29;20278;-84
2023/05/17 14:41:38;;;;;;;10.02;3.25;;;16.20;35.80;;;;;;10178341;29;20242;-83
2023/05/17 14:46:40;;;;;;;3.30;1.73;;;16.20;34.10;;;;;;10205240;29;20258;-83
2023/05/17 14:51:43;;;;;;;9.50;2.97;;;16.00;33.90;;;;;;10205173;29;20966;-84
2023/05/17 14:56:46;;;;;;;3.23;1.60;;;15.90;36.80;;;;;;10207741;29;20251;-84
2023/05/17 15:01:49;;;;;;;2.80;1.50;;;16.00;36.40;;;;;;10206749;29;20254;-85
2023/05/17 15:06:52;;;;;;;5.28;2.05;;;15.80;36.70;;;;;;10207268;29;20275;-85
2023/05/17 15:11:57;;;;;;;3.97;1.92;;;15.90;35.70;;;;;;10206136;29;20698;-85
2023/05/17 15:17:03;;;;;;;5.85;2.53;;;16.10;41.20;;;;;;10206102;29;20293;-84
2023/05/17 15:22:05;;;;;;;5.90;2.33;;;16.20;37.30;;;;;;10206616;29;20250;-84
2023/05/17 15:27:11;;;;;;;6.63;2.03;;;16.30;37.40;;;;;;10207130;29;20242;-84
2023/05/17 15:32:13;;;;;;;8.65;1.77;;;16.20;33.60;;;;;;10206385;29;20294;-84
2023/05/17 15:37:16;;;;;;;8.25;2.63;;;16.00;29.70;;;;;;10204523;29;20231;-85
2023/05/17 15:42:19;;;;;;;3.45;1.38;;;15.90;34.10;;;;;;10201454;29;20762;-83
2023/05/17 15:47:21;;;;;;;5.85;2.00;;;16.00;31.20;;;;;;10235235;29;20656;-84
2023/05/17 15:52:36;;;;;;;4.68;1.83;;;15.70;29.90;;;;;;10190286;29;20266;-84
2023/05/17 15:57:40;;;;;;;10.20;2.50;;;15.70;31.00;;;;;;10189126;29;20299;-84
2023/05/17 16:02:42;;;;;;;11.57;2.00;;;15.80;31.30;;;;;;10207024;29;20646;-84
2023/05/17 16:07:45;;;;;;;7.97;1.47;;;15.70;36.30;;;;;;10196643;29;20262;-85
2023/05/17 16:12:49;;;;;;;5.97;1.30;;;15.60;31.20;;;;;;10193450;29;20711;-85
2023/05/17 16:17:51;;;;;;;4.28;1.83;;;15.50;33.20;;;;;;10212957;29;20275;-84
2023/05/17 16:22:54;;;;;;;4.55;1.58;;;15.70;34.50;;;;;;10194270;29;20230;-85
2023/05/17 16:27:57;;;;;;;6.40;1.95;;;15.70;41.30;;;;;;10211697;29;20380;-85
2023/05/17 16:33:00;;;;;;;7.13;1.88;;;15.50;29.20;;;;;;10178716;29;20286;-85
2023/05/17 16:38:02;;;;;;;5.07;1.90;;;15.60;35.70;;;;;;10212128;29;20254;-83
2023/05/17 16:43:05;;;;;;;9.13;2.17;;;15.50;31.80;;;;;;10194365;29;20704;-85
2023/05/17 16:48:08;;;;;;;4.93;1.70;;;15.50;33.90;;;;;;10212264;29;20298;-85
2023/05/17 16:53:11;;;;;;;6.65;1.75;;;15.10;32.60;;;;;;10204894;29;20334;-84
2023/05/17 16:58:14;;;;;;;7.03;2.37;;;15.00;33.90;;;;;;10210455;29;20662;-83
2023/05/17 17:03:16;;;;;;;3.33;1.57;;;15.00;37.20;;;;;;10209513;29;20231;-83
2023/05/17 17:08:19;;;;;;;6.30;2.08;;;15.00;45.40;;;;;;10208488;29;20262;-83
2023/05/17 17:13:21;;;;;;;8.00;1.50;;;15.00;42.40;;;;;;10206503;29;20314;-83
2023/05/17 17:18:24;;;;;;;7.53;2.00;;;15.00;39.80;;;;;;10208153;29;20234;-84
2023/05/17 17:23:27;;;;;;;4.28;1.77;;;14.90;44.60;;;;;;10187504;29;20270;-84
2023/05/17 17:28:29;;;;;;;4.70;2.03;;;14.70;37.50;;;;;;10207874;29;20285;-83
2023/05/17 17:33:32;;;;;;;6.85;2.05;;;14.50;42.20;;;;;;10189333;29;20270;-83
2023/05/17 17:38:38;;;;;;;5.40;1.90;;;14.50;46.60;;;;;;10185250;29;20230;-83
2023/05/17 17:43:41;;;;;;;4.87;2.03;;;14.40;51.60;;;;;;10208088;29;20258;-84
2023/05/17 17:48:47;;;;;;;6.07;2.00;;;14.20;48.50;;;;;;10208137;29;20681;-82
2023/05/17 17:53:52;;;;;;;6.75;2.45;;;14.10;61.90;;;;;;10157890;29;20268;-83
2023/05/17 17:58:55;;;;;;;7.32;2.80;;;14.20;66.90;;;;;;10186804;28;20648;-84
2023/05/17 18:03:58;;;;;;;9.25;2.47;;;14.20;57.10;;;;;;10183679;29;20266;-84
2023/05/17 18:09:00;;;;;;;8.90;2.50;;;14.00;51.30;;;;;;10177602;29;20302;-84
2023/05/17 18:14:03;;;;;;;5.88;2.38;;;13.80;53.50;;;;;;10179582;29;20333;-83
2023/05/17 18:19:05;;;;;;;5.03;1.80;;;13.90;59.10;;;;;;10198447;29;20286;-83
2023/05/17 18:24:08;;;;;;;6.20;2.07;;;13.60;56.40;;;;;;10183992;29;20311;-86
2023/05/17 18:29:11;;;;;;;7.93;2.58;;;13.40;50.80;;;;;;10193178;29;20254;-85
2023/05/17 18:34:13;;;;;;;8.77;2.23;;;13.50;60.30;;;;;;10204930;29;20325;-84
2023/05/17 18:39:16;;;;;;;7.57;2.13;;;13.30;56.20;;;;;;10196822;29;20246;-83
2023/05/17 18:44:19;;;;;;;12.55;1.80;;;13.40;61.90;;;;;;10177852;29;20656;-85
2023/05/17 18:49:36;;;;;;;5.30;2.07;;;13.30;62.70;;;;;;10167849;29;20314;-85
2023/05/17 18:54:38;;;;;;;2.55;1.40;;;13.30;68.70;;;;;;10171929;29;20731;-86
2023/05/17 18:59:41;;;;;;;5.07;2.38;;;13.30;79.70;;;;;;10184587;29;20246;-86
2023/05/17 19:04:44;;;;;;;4.60;2.00;;;13.40;86.50;;;;;;10187366;29;20330;-88
2023/05/17 19:09:46;;;;;;;6.73;1.63;;;13.40;82.30;;;;;;10154541;29;20247;-88
2023/05/17 19:14:49;;;;;;;4.77;1.50;;;13.50;91.40;;;;;;10190915;29;20722;-88
2023/05/17 19:19:51;;;;;;;12.30;1.65;;;13.50;94.50;;;;;;10163493;29;20870;-84
2023/05/17 19:24:54;;;;;;;3.05;1.67;;;13.70;95.90;;;;;;10193843;29;20322;-85
2023/05/17 19:29:57;;;;;;;1.83;1.60;;;13.70;94.50;;;;;;10207096;29;20306;-85
2023/05/17 19:35:02;;;;;;;6.80;3.15;;;13.80;97.90;;;;;;10208542;29;20270;-85
2023/05/17 19:40:05;;;;;;;12.68;4.63;;;13.80;94.30;;;;;;10193379;29;20835;-85
2023/05/17 19:45:09;;;;;;;9.55;3.90;;;13.90;94.80;;;;;;10202549;29;20242;-87
2023/05/17 19:50:12;;;;;;;9.95;3.25;;;13.70;92.40;;;;;;10177518;29;20239;-86
2023/05/17 19:55:20;;;;;;;10.43;4.05;;;13.50;93.10;;;;;;10189406;29;20746;-86
2023/05/17 20:00:23;;;;;;;12.95;4.30;;;13.30;90.60;;;;;;10202968;29;20286;-84
2023/05/17 20:05:26;;;;;;;10.32;5.35;;;13.00;88.60;;;;;;10211778;29;20712;-86
2023/05/17 20:10:31;;;;;;;17.23;7.90;;;13.00;92.10;;;;;;10178311;29;20251;-84
2023/05/17 20:15:34;;;;;;;10.82;4.70;;;12.90;90.30;;;;;;10168454;29;20329;-84
2023/05/17 20:20:36;;;;;;;7.07;3.73;;;13.00;94.80;;;;;;10209755;29;20274;-85
2023/05/17 20:25:40;;;;;;;7.47;2.38;;;12.50;80.30;;;;;;10194910;29;20239;-87
2023/05/17 20:30:44;;;;;;;10.63;3.23;;;12.20;82.70;;;;;;10192149;29;20248;-84
2023/05/17 20:35:46;;;;;;;5.63;1.83;;;12.10;90.00;;;;;;10173325;29;20311;-85
2023/05/17 20:40:50;;;;;;;7.43;1.93;;;11.80;84.60;;;;;;10156179;29;20645;-83
2023/05/17 20:45:53;;;;;;;5.70;2.28;;;11.70;92.70;;;;;;10191701;29;20298;-84
2023/05/17 20:50:56;;;;;;;7.70;2.53;;;11.70;92.50;;;;;;10168752;29;20235;-83
2023/05/17 20:55:59;;;;;;;8.80;2.90;;;11.60;88.40;;;;;;10183136;29;20692;-84
2023/05/17 21:01:01;;;;;;;7.00;2.27;;;11.30;91.40;;;;;;10167410;29;20301;-84
2023/05/17 21:06:05;;;;;;;4.27;1.73;;;11.20;92.70;;;;;;10186611;29;20271;-85
2023/05/17 21:11:08;;;;;;;4.20;1.97;;;11.20;95.90;;;;;;10187275;29;20307;-84
2023/05/17 21:16:10;;;;;;;3.67;1.80;;;11.00;92.40;;;;;;10171612;29;20707;-85
2023/05/17 21:21:13;;;;;;;5.50;1.60;;;11.10;97.80;;;;;;10175498;29;20291;-85
2023/05/17 21:26:16;;;;;;;7.93;1.70;;;11.00;96.60;;;;;;10192000;29;20303;-86
2023/05/17 21:31:20;;;;;;;3.30;1.93;;;10.90;96.30;;;;;;10190784;29;20334;-86
2023/05/17 21:36:23;;;;;;;10.20;2.33;;;11.00;96.90;;;;;;10179181;29;20276;-85
2023/05/17 21:41:25;;;;;;;4.50;1.87;;;11.10;96.30;;;;;;10189422;29;20327;-85
2023/05/17 21:46:30;;;;;;;6.27;2.47;;;11.10;98.40;;;;;;10190823;29;20310;-86
2023/05/17 21:51:33;;;;;;;5.63;1.73;;;11.00;94.50;;;;;;10170963;29;20648;-86
2023/05/17 21:56:37;;;;;;;4.03;1.67;;;10.70;96.10;;;;;;10237613;23;20270;-86
2023/05/17 22:01:39;;;;;;;6.40;2.33;;;10.60;96.80;;;;;;10227062;28;20301;-86
2023/05/17 22:06:42;;;;;;;5.57;1.73;;;10.60;95.30;;;;;;10212399;28;20231;-86
2023/05/17 22:11:45;;;;;;;2.97;1.50;;;10.40;95.20;;;;;;10223598;28;20241;-86
2023/05/17 22:16:49;;;;;;;5.67;1.67;;;;;;;;;;10226843;28;20314;-86
2023/05/17 22:21:51;;;;;;;6.07;1.90;;;10.10;97.70;;;;;;10222173;29;20668;-86
2023/05/17 22:26:54;;;;;;;3.17;1.37;;;10.20;98.50;;;;;;10235146;28;20290;-86
2023/05/17 22:32:00;;;;;;;6.73;1.73;;;9.90;97.40;;;;;;10248350;28;20253;-87
2023/05/17 22:37:06;;;;;;;4.50;2.27;;;9.70;97.10;;;;;;10227885;28;20712;-86
2023/05/17 22:42:08;;;;;;;6.30;2.17;;;10.00;99.90;;;;;;10247546;28;20261;-87
2023/05/17 22:47:13;;;;;;;6.33;1.33;;;10.30;99.90;;;;;;10248603;28;20304;-85
2023/05/17 22:52:17;;;;;;;6.70;2.40;;;10.30;99.90;;;;;;10246106;28;20635;-85
2023/05/17 22:57:20;;;;;;;7.63;2.90;;;10.20;99.90;;;;;;10234208;28;20329;-85
2023/05/17 23:02:22;;;;;;;3.70;1.57;;;9.80;99.90;;;;;;10246721;28;20323;-84
2023/05/17 23:07:26;;;;;;;7.10;2.60;;;9.80;99.90;;;;;;10246674;28;20243;-84
2023/05/17 23:12:31;;;;;;;3.33;1.80;;;;;;;;;;10246219;28;20242;-85
2023/05/17 23:17:34;;;;;;;11.57;3.77;;;9.50;99.90;;;;;;10228672;28;20697;-84
2023/05/17 23:22:37;;;;;;;9.30;3.17;;;9.60;99.90;;;;;;10246176;28;20708;-84
2023/05/17 23:27:43;;;;;;;5.57;2.70;;;9.30;99.90;;;;;;10229133;28;20202;-84
2023/05/17 23:32:47;;;;;;;6.27;2.67;;;8.90;99.90;;;;;;10229398;28;20301;-84
2023/05/17 23:37:50;;;;;;;12.23;2.80;;;9.00;99.90;;;;;;10245960;28;20280;-84
2023/05/17 23:42:52;;;;;;;9.00;2.33;;;8.90;99.90;;;;;;10245430;28;20269;-84
2023/05/17 23:47:58;;;;;;;8.47;3.03;;;8.80;99.90;;;;;;10245399;28;20230;-84
2023/05/17 23:53:02;;;;;;;14.43;2.70;;;8.80;99.90;;;;;;10246247;28;20231;-85
2023/05/17 23:58:04;;;;;;;6.00;2.30;;;8.60;99.90;;;;;;10227117;29;20293;-84
